sensor_id;sensor_type;location;lat;lon;timestamp;temperature;humidity
13332;DHT22;6735;51.456;12.626;2022-09-09T00:00:17;14.20;88.80
13332;DHT22;6735;51.456;12.626;2022-09-09T00:02:55;14.20;88.80
13332;DHT22;6735;51.456;12.626;2022-09-09T00:06:17;14.10;88.80
13332;DHT22;6735;51.456;12.626;2022-09-09T00:08:51;14.20;88.80
13332;DHT22;6735;51.456;12.626;2022-09-09T00:11:26;14.10;88.80
13332;DHT22;6735;51.456;12.626;2022-09-09T00:13:54;14.10;88.80
13332;DHT22;6735;51.456;12.626;2022-09-09T00:16:24;14.10;88.80
13332;DHT22;6735;51.456;12.626;2022-09-09T00:21:43;14.00;88.80
13332;DHT22;6735;51.456;12.626;2022-09-09T00:24:26;13.90;88.80
13332;DHT22;6735;51.456;12.626;2022-09-09T00:26:57;13.90;88.80
13332;DHT22;6735;51.456;12.626;2022-09-09T00:29:44;13.90;88.80
13332;DHT22;6735;51.456;12.626;2022-09-09T00:32:16;13.90;88.70
13332;DHT22;6735;51.456;12.626;2022-09-09T00:34:56;13.80;88.80
13332;DHT22;6735;51.456;12.626;2022-09-09T00:37:24;13.80;88.80
13332;DHT22;6735;51.456;12.626;2022-09-09T00:39:53;13.80;88.80
13332;DHT22;6735;51.456;12.626;2022-09-09T00:42:42;13.80;88.90
13332;DHT22;6735;51.456;12.626;2022-09-09T00:47:45;13.70;88.90
13332;DHT22;6735;51.456;12.626;2022-09-09T00:50:42;13.70;88.80
13332;DHT22;6735;51.456;12.626;2022-09-09T00:53:39;13.70;88.80
13332;DHT22;6735;51.456;12.626;2022-09-09T00:56:16;13.70;88.80
13332;DHT22;6735;51.456;12.626;2022-09-09T00:59:07;13.60;88.80
13332;DHT22;6735;51.456;12.626;2022-09-09T01:01:37;13.60;88.90
13332;DHT22;6735;51.456;12.626;2022-09-09T01:04:09;13.60;89.00
13332;DHT22;6735;51.456;12.626;2022-09-09T01:06:37;13.60;89.00
13332;DHT22;6735;51.456;12.626;2022-09-09T01:09:24;13.60;88.90
13332;DHT22;6735;51.456;12.626;2022-09-09T01:17:30;13.50;89.00
13332;DHT22;6735;51.456;12.626;2022-09-09T01:28:16;13.50;89.00
13332;DHT22;6735;51.456;12.626;2022-09-09T01:30:44;13.50;89.00
13332;DHT22;6735;51.456;12.626;2022-09-09T01:33:15;13.40;88.90
13332;DHT22;6735;51.456;12.626;2022-09-09T01:38:20;13.40;89.00
13332;DHT22;6735;51.456;12.626;2022-09-09T01:40:46;13.40;89.00
13332;DHT22;6735;51.456;12.626;2022-09-09T01:43:13;13.30;89.00
13332;DHT22;6735;51.456;12.626;2022-09-09T01:45:41;13.30;89.00
13332;DHT22;6735;51.456;12.626;2022-09-09T01:48:07;13.30;89.00
13332;DHT22;6735;51.456;12.626;2022-09-09T01:50:33;13.20;89.10
13332;DHT22;6735;51.456;12.626;2022-09-09T01:53:00;13.20;89.10
13332;DHT22;6735;51.456;12.626;2022-09-09T01:55:37;13.20;89.10
13332;DHT22;6735;51.456;12.626;2022-09-09T02:03:49;13.20;89.20
13332;DHT22;6735;51.456;12.626;2022-09-09T02:06:27;13.20;89.20
13332;DHT22;6735;51.456;12.626;2022-09-09T02:08:56;13.20;89.20
13332;DHT22;6735;51.456;12.626;2022-09-09T02:11:25;13.20;89.40
13332;DHT22;6735;51.456;12.626;2022-09-09T02:14:01;13.20;89.40
13332;DHT22;6735;51.456;12.626;2022-09-09T02:16:30;13.20;89.40
13332;DHT22;6735;51.456;12.626;2022-09-09T02:19:01;13.20;89.30
13332;DHT22;6735;51.456;12.626;2022-09-09T02:21:29;13.20;89.40
13332;DHT22;6735;51.456;12.626;2022-09-09T02:23:57;13.20;89.40
13332;DHT22;6735;51.456;12.626;2022-09-09T02:26:24;13.10;89.40
13332;DHT22;6735;51.456;12.626;2022-09-09T02:28:53;13.10;89.40
13332;DHT22;6735;51.456;12.626;2022-09-09T02:31:22;13.10;89.40
13332;DHT22;6735;51.456;12.626;2022-09-09T02:33:52;13.10;89.30
13332;DHT22;6735;51.456;12.626;2022-09-09T02:36:22;13.10;89.30
13332;DHT22;6735;51.456;12.626;2022-09-09T02:38:48;13.10;89.40
13332;DHT22;6735;51.456;12.626;2022-09-09T02:41:18;13.10;89.40
13332;DHT22;6735;51.456;12.626;2022-09-09T02:43:45;13.10;89.30
13332;DHT22;6735;51.456;12.626;2022-09-09T02:46:45;13.10;89.40
13332;DHT22;6735;51.456;12.626;2022-09-09T02:52:02;13.10;89.50
13332;DHT22;6735;51.456;12.626;2022-09-09T02:54:32;13.00;89.50
13332;DHT22;6735;51.456;12.626;2022-09-09T02:59:33;13.00;89.40
13332;DHT22;6735;51.456;12.626;2022-09-09T03:01:59;13.00;89.50
13332;DHT22;6735;51.456;12.626;2022-09-09T03:04:24;13.00;89.40
13332;DHT22;6735;51.456;12.626;2022-09-09T03:06:50;13.00;89.40
13332;DHT22;6735;51.456;12.626;2022-09-09T03:09:16;13.00;89.50
13332;DHT22;6735;51.456;12.626;2022-09-09T03:11:42;12.90;89.50
13332;DHT22;6735;51.456;12.626;2022-09-09T03:14:07;13.00;89.50
13332;DHT22;6735;51.456;12.626;2022-09-09T03:16:34;12.90;89.40
13332;DHT22;6735;51.456;12.626;2022-09-09T03:19:00;12.90;89.50
13332;DHT22;6735;51.456;12.626;2022-09-09T03:21:26;12.90;89.50
13332;DHT22;6735;51.456;12.626;2022-09-09T03:23:52;12.90;89.60
13332;DHT22;6735;51.456;12.626;2022-09-09T03:26:17;12.90;89.60
13332;DHT22;6735;51.456;12.626;2022-09-09T03:28:43;12.90;89.70
13332;DHT22;6735;51.456;12.626;2022-09-09T03:31:10;12.90;89.60
13332;DHT22;6735;51.456;12.626;2022-09-09T03:33:37;13.00;89.70
13332;DHT22;6735;51.456;12.626;2022-09-09T03:36:04;13.00;89.80
13332;DHT22;6735;51.456;12.626;2022-09-09T03:38:29;13.00;89.80
13332;DHT22;6735;51.456;12.626;2022-09-09T03:40:56;13.00;89.80
13332;DHT22;6735;51.456;12.626;2022-09-09T03:43:23;13.00;89.70
13332;DHT22;6735;51.456;12.626;2022-09-09T03:45:49;13.00;89.80
13332;DHT22;6735;51.456;12.626;2022-09-09T03:48:16;13.00;89.80
13332;DHT22;6735;51.456;12.626;2022-09-09T03:50:50;13.00;89.70
13332;DHT22;6735;51.456;12.626;2022-09-09T03:53:17;13.00;89.70
13332;DHT22;6735;51.456;12.626;2022-09-09T03:55:46;13.00;89.70
13332;DHT22;6735;51.456;12.626;2022-09-09T03:58:16;13.00;89.70
13332;DHT22;6735;51.456;12.626;2022-09-09T04:00:52;13.00;89.70
13332;DHT22;6735;51.456;12.626;2022-09-09T04:03:18;13.00;89.70
13332;DHT22;6735;51.456;12.626;2022-09-09T04:05:43;13.00;89.90
13332;DHT22;6735;51.456;12.626;2022-09-09T04:08:09;13.10;89.90
13332;DHT22;6735;51.456;12.626;2022-09-09T04:10:34;13.10;89.90
13332;DHT22;6735;51.456;12.626;2022-09-09T04:13:03;13.10;89.90
13332;DHT22;6735;51.456;12.626;2022-09-09T04:15:28;13.10;89.90
13332;DHT22;6735;51.456;12.626;2022-09-09T04:17:54;13.10;89.90
13332;DHT22;6735;51.456;12.626;2022-09-09T04:20:19;13.10;89.80
13332;DHT22;6735;51.456;12.626;2022-09-09T04:22:45;13.10;89.90
13332;DHT22;6735;51.456;12.626;2022-09-09T04:25:10;13.10;89.90
13332;DHT22;6735;51.456;12.626;2022-09-09T04:27:36;13.10;89.90
13332;DHT22;6735;51.456;12.626;2022-09-09T04:30:02;13.20;89.90
13332;DHT22;6735;51.456;12.626;2022-09-09T04:32:27;13.20;89.90
13332;DHT22;6735;51.456;12.626;2022-09-09T04:34:53;13.20;90.00
13332;DHT22;6735;51.456;12.626;2022-09-09T04:37:19;13.20;90.00
13332;DHT22;6735;51.456;12.626;2022-09-09T04:39:44;13.30;89.90
13332;DHT22;6735;51.456;12.626;2022-09-09T04:42:10;13.40;90.10
13332;DHT22;6735;51.456;12.626;2022-09-09T04:44:37;13.40;90.00
13332;DHT22;6735;51.456;12.626;2022-09-09T04:47:02;13.40;89.80
13332;DHT22;6735;51.456;12.626;2022-09-09T04:49:28;13.50;89.90
13332;DHT22;6735;51.456;12.626;2022-09-09T04:51:53;13.60;89.90
13332;DHT22;6735;51.456;12.626;2022-09-09T04:54:19;13.60;89.90
13332;DHT22;6735;51.456;12.626;2022-09-09T04:56:44;13.70;89.90
13332;DHT22;6735;51.456;12.626;2022-09-09T04:59:10;13.80;89.90
13332;DHT22;6735;51.456;12.626;2022-09-09T05:01:35;13.80;89.70
13332;DHT22;6735;51.456;12.626;2022-09-09T05:04:02;13.90;89.70
13332;DHT22;6735;51.456;12.626;2022-09-09T05:06:28;14.00;89.50
13332;DHT22;6735;51.456;12.626;2022-09-09T05:08:55;14.00;89.40
13332;DHT22;6735;51.456;12.626;2022-09-09T05:11:25;14.10;89.40
13332;DHT22;6735;51.456;12.626;2022-09-09T05:13:52;14.20;89.30
13332;DHT22;6735;51.456;12.626;2022-09-09T05:16:18;14.20;89.10
13332;DHT22;6735;51.456;12.626;2022-09-09T05:18:45;14.30;89.00
13332;DHT22;6735;51.456;12.626;2022-09-09T05:21:12;14.40;88.90
13332;DHT22;6735;51.456;12.626;2022-09-09T05:23:38;14.60;88.90
13332;DHT22;6735;51.456;12.626;2022-09-09T05:26:05;14.70;88.40
13332;DHT22;6735;51.456;12.626;2022-09-09T05:28:33;14.70;88.20
13332;DHT22;6735;51.456;12.626;2022-09-09T05:31:04;14.80;88.20
13332;DHT22;6735;51.456;12.626;2022-09-09T05:33:33;14.80;88.00
13332;DHT22;6735;51.456;12.626;2022-09-09T05:36:01;14.90;87.90
13332;DHT22;6735;51.456;12.626;2022-09-09T05:38:28;15.10;87.80
13332;DHT22;6735;51.456;12.626;2022-09-09T05:40:54;15.50;87.00
13332;DHT22;6735;51.456;12.626;2022-09-09T05:43:22;15.90;85.80
13332;DHT22;6735;51.456;12.626;2022-09-09T05:45:48;16.00;85.10
13332;DHT22;6735;51.456;12.626;2022-09-09T05:48:16;15.80;85.20
13332;DHT22;6735;51.456;12.626;2022-09-09T05:50:42;15.70;85.40
13332;DHT22;6735;51.456;12.626;2022-09-09T05:53:09;15.60;85.60
13332;DHT22;6735;51.456;12.626;2022-09-09T05:55:35;15.60;85.80
13332;DHT22;6735;51.456;12.626;2022-09-09T05:58:01;15.60;86.10
13332;DHT22;6735;51.456;12.626;2022-09-09T06:00:26;15.50;85.90
13332;DHT22;6735;51.456;12.626;2022-09-09T06:02:52;15.50;86.20
13332;DHT22;6735;51.456;12.626;2022-09-09T06:05:19;15.60;86.30
13332;DHT22;6735;51.456;12.626;2022-09-09T06:07:44;15.60;86.40
13332;DHT22;6735;51.456;12.626;2022-09-09T06:10:11;15.60;86.30
13332;DHT22;6735;51.456;12.626;2022-09-09T06:12:39;15.70;86.50
13332;DHT22;6735;51.456;12.626;2022-09-09T06:15:05;15.80;86.50
13332;DHT22;6735;51.456;12.626;2022-09-09T06:17:30;15.80;86.30
13332;DHT22;6735;51.456;12.626;2022-09-09T06:19:56;15.90;86.10
13332;DHT22;6735;51.456;12.626;2022-09-09T06:22:22;16.00;86.00
13332;DHT22;6735;51.456;12.626;2022-09-09T06:24:47;16.10;85.80
13332;DHT22;6735;51.456;12.626;2022-09-09T06:27:13;16.20;85.50
13332;DHT22;6735;51.456;12.626;2022-09-09T06:29:39;16.20;85.20
13332;DHT22;6735;51.456;12.626;2022-09-09T06:32:04;16.30;84.80
13332;DHT22;6735;51.456;12.626;2022-09-09T06:34:30;16.30;84.00
13332;DHT22;6735;51.456;12.626;2022-09-09T06:36:56;16.40;84.20
13332;DHT22;6735;51.456;12.626;2022-09-09T06:39:23;16.50;84.30
13332;DHT22;6735;51.456;12.626;2022-09-09T06:41:48;16.50;84.20
13332;DHT22;6735;51.456;12.626;2022-09-09T06:44:15;16.60;84.60
13332;DHT22;6735;51.456;12.626;2022-09-09T06:46:40;16.80;84.20
13332;DHT22;6735;51.456;12.626;2022-09-09T06:49:08;16.80;84.20
13332;DHT22;6735;51.456;12.626;2022-09-09T06:51:35;16.80;83.70
13332;DHT22;6735;51.456;12.626;2022-09-09T06:54:03;16.90;83.10
13332;DHT22;6735;51.456;12.626;2022-09-09T06:56:33;17.00;83.50
13332;DHT22;6735;51.456;12.626;2022-09-09T06:59:02;17.10;83.50
13332;DHT22;6735;51.456;12.626;2022-09-09T07:01:39;17.10;83.40
13332;DHT22;6735;51.456;12.626;2022-09-09T07:04:12;17.20;83.20
13332;DHT22;6735;51.456;12.626;2022-09-09T07:06:40;17.30;83.30
13332;DHT22;6735;51.456;12.626;2022-09-09T07:09:08;17.40;83.30
13332;DHT22;6735;51.456;12.626;2022-09-09T07:11:38;17.40;83.10
13332;DHT22;6735;51.456;12.626;2022-09-09T07:14:04;17.50;82.80
13332;DHT22;6735;51.456;12.626;2022-09-09T07:16:29;17.50;82.60
13332;DHT22;6735;51.456;12.626;2022-09-09T07:18:57;17.50;82.30
13332;DHT22;6735;51.456;12.626;2022-09-09T07:21:27;17.60;82.10
13332;DHT22;6735;51.456;12.626;2022-09-09T07:23:53;17.80;81.70
13332;DHT22;6735;51.456;12.626;2022-09-09T07:26:20;18.20;80.50
13332;DHT22;6735;51.456;12.626;2022-09-09T07:28:46;19.10;79.10
13332;DHT22;6735;51.456;12.626;2022-09-09T07:31:15;19.10;78.10
13332;DHT22;6735;51.456;12.626;2022-09-09T07:33:42;18.80;78.20
13332;DHT22;6735;51.456;12.626;2022-09-09T07:36:09;18.80;78.40
13332;DHT22;6735;51.456;12.626;2022-09-09T07:38:40;19.30;77.70
13332;DHT22;6735;51.456;12.626;2022-09-09T07:41:07;19.70;76.10
13332;DHT22;6735;51.456;12.626;2022-09-09T07:43:37;20.10;75.40
13332;DHT22;6735;51.456;12.626;2022-09-09T07:46:03;20.20;75.30
13332;DHT22;6735;51.456;12.626;2022-09-09T07:48:29;20.40;74.00
13332;DHT22;6735;51.456;12.626;2022-09-09T07:53:31;20.80;69.60
13332;DHT22;6735;51.456;12.626;2022-09-09T07:56:03;21.10;72.10
13332;DHT22;6735;51.456;12.626;2022-09-09T07:58:29;21.40;69.70
13332;DHT22;6735;51.456;12.626;2022-09-09T08:00:54;21.80;69.90
13332;DHT22;6735;51.456;12.626;2022-09-09T08:03:20;21.90;67.20
13332;DHT22;6735;51.456;12.626;2022-09-09T08:05:47;22.20;67.30
13332;DHT22;6735;51.456;12.626;2022-09-09T08:08:12;22.10;66.90
13332;DHT22;6735;51.456;12.626;2022-09-09T08:10:38;21.70;66.70
13332;DHT22;6735;51.456;12.626;2022-09-09T08:13:03;21.70;67.30
13332;DHT22;6735;51.456;12.626;2022-09-09T08:15:30;21.70;68.70
13332;DHT22;6735;51.456;12.626;2022-09-09T08:17:56;21.70;67.60
13332;DHT22;6735;51.456;12.626;2022-09-09T08:20:21;22.00;65.90
13332;DHT22;6735;51.456;12.626;2022-09-09T08:22:48;22.20;66.40
13332;DHT22;6735;51.456;12.626;2022-09-09T08:25:15;22.20;66.30
13332;DHT22;6735;51.456;12.626;2022-09-09T08:27:40;22.10;65.80
13332;DHT22;6735;51.456;12.626;2022-09-09T08:30:06;22.30;64.70
13332;DHT22;6735;51.456;12.626;2022-09-09T08:32:32;22.20;65.10
13332;DHT22;6735;51.456;12.626;2022-09-09T08:34:57;22.20;65.50
13332;DHT22;6735;51.456;12.626;2022-09-09T08:37:23;22.10;65.20
13332;DHT22;6735;51.456;12.626;2022-09-09T08:39:48;22.40;63.60
13332;DHT22;6735;51.456;12.626;2022-09-09T08:42:43;22.60;63.70
13332;DHT22;6735;51.456;12.626;2022-09-09T08:45:20;22.60;61.30
13332;DHT22;6735;51.456;12.626;2022-09-09T08:48:17;22.50;62.50
13332;DHT22;6735;51.456;12.626;2022-09-09T08:50:45;22.40;61.60
13332;DHT22;6735;51.456;12.626;2022-09-09T08:53:23;22.20;63.90
13332;DHT22;6735;51.456;12.626;2022-09-09T08:56:09;22.40;62.70
13332;DHT22;6735;51.456;12.626;2022-09-09T08:58:44;22.80;61.80
13332;DHT22;6735;51.456;12.626;2022-09-09T09:04:33;23.40;59.70
13332;DHT22;6735;51.456;12.626;2022-09-09T09:10:35;24.10;57.20
13332;DHT22;6735;51.456;12.626;2022-09-09T09:13:15;24.20;56.10
13332;DHT22;6735;51.456;12.626;2022-09-09T09:15:42;24.30;57.40
13332;DHT22;6735;51.456;12.626;2022-09-09T09:18:11;24.50;57.60
13332;DHT22;6735;51.456;12.626;2022-09-09T09:20:58;24.50;57.10
13332;DHT22;6735;51.456;12.626;2022-09-09T09:23:33;24.60;54.60
13332;DHT22;6735;51.456;12.626;2022-09-09T09:26:07;24.60;54.60
13332;DHT22;6735;51.456;12.626;2022-09-09T09:28:35;24.60;54.70
13332;DHT22;6735;51.456;12.626;2022-09-09T09:31:12;24.70;55.90
13332;DHT22;6735;51.456;12.626;2022-09-09T09:36:07;24.90;55.80
13332;DHT22;6735;51.456;12.626;2022-09-09T09:38:34;25.00;54.90
13332;DHT22;6735;51.456;12.626;2022-09-09T09:41:00;24.70;55.00
13332;DHT22;6735;51.456;12.626;2022-09-09T09:43:28;24.80;55.80
13332;DHT22;6735;51.456;12.626;2022-09-09T09:45:54;25.00;55.00
13332;DHT22;6735;51.456;12.626;2022-09-09T09:48:20;25.10;54.20
13332;DHT22;6735;51.456;12.626;2022-09-09T09:51:11;25.10;54.50
13332;DHT22;6735;51.456;12.626;2022-09-09T09:53:36;25.10;54.40
13332;DHT22;6735;51.456;12.626;2022-09-09T09:58:51;25.20;51.20
13332;DHT22;6735;51.456;12.626;2022-09-09T10:01:27;25.10;51.90
13332;DHT22;6735;51.456;12.626;2022-09-09T10:03:56;24.90;52.50
13332;DHT22;6735;51.456;12.626;2022-09-09T10:06:34;24.90;53.30
13332;DHT22;6735;51.456;12.626;2022-09-09T10:09:01;25.00;52.00
13332;DHT22;6735;51.456;12.626;2022-09-09T10:12:01;25.00;53.10
13332;DHT22;6735;51.456;12.626;2022-09-09T10:20:29;25.50;50.70
13332;DHT22;6735;51.456;12.626;2022-09-09T10:23:21;25.30;52.70
13332;DHT22;6735;51.456;12.626;2022-09-09T10:32:05;25.40;51.90
13332;DHT22;6735;51.456;12.626;2022-09-09T10:35:11;25.60;51.50
13332;DHT22;6735;51.456;12.626;2022-09-09T10:43:03;25.70;52.00
13332;DHT22;6735;51.456;12.626;2022-09-09T10:45:45;25.70;52.10
13332;DHT22;6735;51.456;12.626;2022-09-09T10:53:36;25.60;51.80
13332;DHT22;6735;51.456;12.626;2022-09-09T10:56:11;25.70;51.50
13332;DHT22;6735;51.456;12.626;2022-09-09T10:58:47;25.70;52.10
13332;DHT22;6735;51.456;12.626;2022-09-09T11:01:24;25.30;52.30
13332;DHT22;6735;51.456;12.626;2022-09-09T11:04:19;25.00;53.20
13332;DHT22;6735;51.456;12.626;2022-09-09T11:06:52;24.70;54.80
13332;DHT22;6735;51.456;12.626;2022-09-09T11:09:23;24.80;53.90
13332;DHT22;6735;51.456;12.626;2022-09-09T11:11:56;25.00;53.50
13332;DHT22;6735;51.456;12.626;2022-09-09T11:17:05;24.80;52.10
13332;DHT22;6735;51.456;12.626;2022-09-09T11:19:45;24.90;52.70
13332;DHT22;6735;51.456;12.626;2022-09-09T11:22:30;24.90;51.90
13332;DHT22;6735;51.456;12.626;2022-09-09T11:25:08;24.80;50.90
13332;DHT22;6735;51.456;12.626;2022-09-09T11:35:55;25.20;50.90
13332;DHT22;6735;51.456;12.626;2022-09-09T11:38:36;25.00;50.80
13332;DHT22;6735;51.456;12.626;2022-09-09T11:41:07;25.00;51.10
13332;DHT22;6735;51.456;12.626;2022-09-09T11:43:46;25.10;51.50
13332;DHT22;6735;51.456;12.626;2022-09-09T11:46:13;25.10;51.40
13332;DHT22;6735;51.456;12.626;2022-09-09T11:48:42;24.90;51.50
13332;DHT22;6735;51.456;12.626;2022-09-09T11:51:13;25.00;51.90
13332;DHT22;6735;51.456;12.626;2022-09-09T11:54:00;25.00;51.80
13332;DHT22;6735;51.456;12.626;2022-09-09T11:59:19;25.10;51.20
13332;DHT22;6735;51.456;12.626;2022-09-09T12:01:48;25.00;51.40
13332;DHT22;6735;51.456;12.626;2022-09-09T12:09:43;24.50;52.90
13332;DHT22;6735;51.456;12.626;2022-09-09T12:14:43;24.70;52.30
13332;DHT22;6735;51.456;12.626;2022-09-09T12:17:23;24.90;51.60
13332;DHT22;6735;51.456;12.626;2022-09-09T12:20:09;25.00;51.20
13332;DHT22;6735;51.456;12.626;2022-09-09T12:23:08;25.20;51.30
13332;DHT22;6735;51.456;12.626;2022-09-09T12:26:23;25.10;50.20
13332;DHT22;6735;51.456;12.626;2022-09-09T12:29:03;24.70;49.70
13332;DHT22;6735;51.456;12.626;2022-09-09T12:34:37;24.50;50.40
13332;DHT22;6735;51.456;12.626;2022-09-09T12:37:29;24.40;51.40
13332;DHT22;6735;51.456;12.626;2022-09-09T12:39:56;24.50;50.90
13332;DHT22;6735;51.456;12.626;2022-09-09T12:42:23;24.40;50.60
13332;DHT22;6735;51.456;12.626;2022-09-09T12:47:19;24.60;50.40
13332;DHT22;6735;51.456;12.626;2022-09-09T12:49:46;24.70;50.60
13332;DHT22;6735;51.456;12.626;2022-09-09T12:54:45;24.70;49.90
13332;DHT22;6735;51.456;12.626;2022-09-09T12:57:12;24.70;50.20
13332;DHT22;6735;51.456;12.626;2022-09-09T12:59:41;24.70;50.70
13332;DHT22;6735;51.456;12.626;2022-09-09T13:02:26;24.50;50.00
13332;DHT22;6735;51.456;12.626;2022-09-09T13:04:53;24.60;50.90
13332;DHT22;6735;51.456;12.626;2022-09-09T13:07:20;24.70;50.40
13332;DHT22;6735;51.456;12.626;2022-09-09T13:09:47;24.90;49.90
13332;DHT22;6735;51.456;12.626;2022-09-09T13:12:17;25.10;49.60
13332;DHT22;6735;51.456;12.626;2022-09-09T13:14:45;25.20;49.10
13332;DHT22;6735;51.456;12.626;2022-09-09T13:17:22;25.10;48.30
13332;DHT22;6735;51.456;12.626;2022-09-09T13:19:49;25.10;48.80
13332;DHT22;6735;51.456;12.626;2022-09-09T13:22:34;25.00;48.50
13332;DHT22;6735;51.456;12.626;2022-09-09T13:25:27;24.90;48.70
13332;DHT22;6735;51.456;12.626;2022-09-09T13:28:02;24.70;49.00
13332;DHT22;6735;51.456;12.626;2022-09-09T13:30:33;24.60;49.60
13332;DHT22;6735;51.456;12.626;2022-09-09T13:35:35;24.40;50.90
13332;DHT22;6735;51.456;12.626;2022-09-09T13:38:10;24.30;51.60
13332;DHT22;6735;51.456;12.626;2022-09-09T13:40:35;24.20;51.60
13332;DHT22;6735;51.456;12.626;2022-09-09T13:43:02;24.10;52.10
13332;DHT22;6735;51.456;12.626;2022-09-09T13:45:28;24.00;53.10
13332;DHT22;6735;51.456;12.626;2022-09-09T13:47:54;23.80;53.40
13332;DHT22;6735;51.456;12.626;2022-09-09T13:52:50;23.80;54.40
13332;DHT22;6735;51.456;12.626;2022-09-09T13:55:18;23.80;54.60
13332;DHT22;6735;51.456;12.626;2022-09-09T13:57:53;23.80;54.90
13332;DHT22;6735;51.456;12.626;2022-09-09T14:00:20;23.80;54.80
13332;DHT22;6735;51.456;12.626;2022-09-09T14:02:46;23.80;55.10
13332;DHT22;6735;51.456;12.626;2022-09-09T14:05:12;23.80;55.70
13332;DHT22;6735;51.456;12.626;2022-09-09T14:07:39;23.70;55.80
13332;DHT22;6735;51.456;12.626;2022-09-09T14:10:06;23.70;55.70
13332;DHT22;6735;51.456;12.626;2022-09-09T14:12:31;23.70;56.00
13332;DHT22;6735;51.456;12.626;2022-09-09T14:14:57;23.70;56.20
13332;DHT22;6735;51.456;12.626;2022-09-09T14:17:22;23.70;56.50
13332;DHT22;6735;51.456;12.626;2022-09-09T14:19:48;23.60;56.40
13332;DHT22;6735;51.456;12.626;2022-09-09T14:22:14;23.50;56.60
13332;DHT22;6735;51.456;12.626;2022-09-09T14:24:39;23.50;56.80
13332;DHT22;6735;51.456;12.626;2022-09-09T14:27:06;23.40;57.60
13332;DHT22;6735;51.456;12.626;2022-09-09T14:29:31;23.30;58.00
13332;DHT22;6735;51.456;12.626;2022-09-09T14:31:58;23.20;58.80
13332;DHT22;6735;51.456;12.626;2022-09-09T14:34:26;23.20;59.70
13332;DHT22;6735;51.456;12.626;2022-09-09T14:36:51;22.80;58.50
13332;DHT22;6735;51.456;12.626;2022-09-09T14:39:17;22.30;58.50
13332;DHT22;6735;51.456;12.626;2022-09-09T14:41:42;22.00;59.10
13332;DHT22;6735;51.456;12.626;2022-09-09T14:44:08;21.70;59.60
13332;DHT22;6735;51.456;12.626;2022-09-09T14:46:33;21.60;59.70
13332;DHT22;6735;51.456;12.626;2022-09-09T14:48:59;21.30;60.70
13332;DHT22;6735;51.456;12.626;2022-09-09T14:51:26;21.20;60.70
13332;DHT22;6735;51.456;12.626;2022-09-09T14:53:55;21.20;61.40
13332;DHT22;6735;51.456;12.626;2022-09-09T14:56:24;21.10;62.60
13332;DHT22;6735;51.456;12.626;2022-09-09T14:58:50;21.20;63.40
13332;DHT22;6735;51.456;12.626;2022-09-09T15:01:18;21.20;63.40
13332;DHT22;6735;51.456;12.626;2022-09-09T15:03:50;21.40;64.10
13332;DHT22;6735;51.456;12.626;2022-09-09T15:06:16;21.40;65.30
13332;DHT22;6735;51.456;12.626;2022-09-09T15:08:43;21.40;65.70
13332;DHT22;6735;51.456;12.626;2022-09-09T15:11:10;21.50;66.30
13332;DHT22;6735;51.456;12.626;2022-09-09T15:13:37;21.60;66.80
13332;DHT22;6735;51.456;12.626;2022-09-09T15:16:07;21.50;67.30
13332;DHT22;6735;51.456;12.626;2022-09-09T15:18:33;21.50;67.20
13332;DHT22;6735;51.456;12.626;2022-09-09T15:20:59;21.60;67.60
13332;DHT22;6735;51.456;12.626;2022-09-09T15:23:27;21.70;67.80
13332;DHT22;6735;51.456;12.626;2022-09-09T15:25:56;21.80;67.90
13332;DHT22;6735;51.456;12.626;2022-09-09T15:28:22;21.90;67.60
13332;DHT22;6735;51.456;12.626;2022-09-09T15:30:52;21.90;67.30
13332;DHT22;6735;51.456;12.626;2022-09-09T15:33:22;22.10;66.60
13332;DHT22;6735;51.456;12.626;2022-09-09T15:35:47;22.10;65.10
13332;DHT22;6735;51.456;12.626;2022-09-09T15:38:14;22.10;64.10
13332;DHT22;6735;51.456;12.626;2022-09-09T15:40:41;22.00;62.90
13332;DHT22;6735;51.456;12.626;2022-09-09T15:43:08;21.90;63.20
13332;DHT22;6735;51.456;12.626;2022-09-09T15:45:35;21.80;62.90
13332;DHT22;6735;51.456;12.626;2022-09-09T15:48:01;21.70;62.40
13332;DHT22;6735;51.456;12.626;2022-09-09T15:50:27;21.60;63.20
13332;DHT22;6735;51.456;12.626;2022-09-09T15:52:54;21.50;63.60
13332;DHT22;6735;51.456;12.626;2022-09-09T15:55:20;21.40;63.20
13332;DHT22;6735;51.456;12.626;2022-09-09T15:57:46;21.30;63.30
13332;DHT22;6735;51.456;12.626;2022-09-09T16:00:12;21.20;63.10
13332;DHT22;6735;51.456;12.626;2022-09-09T16:02:39;21.10;63.30
13332;DHT22;6735;51.456;12.626;2022-09-09T16:05:05;21.10;63.20
13332;DHT22;6735;51.456;12.626;2022-09-09T16:07:31;21.00;63.50
13332;DHT22;6735;51.456;12.626;2022-09-09T16:09:56;20.90;63.40
13332;DHT22;6735;51.456;12.626;2022-09-09T16:12:22;20.90;63.60
13332;DHT22;6735;51.456;12.626;2022-09-09T16:14:47;20.80;64.00
13332;DHT22;6735;51.456;12.626;2022-09-09T16:17:13;20.70;64.60
13332;DHT22;6735;51.456;12.626;2022-09-09T16:19:40;20.70;65.00
13332;DHT22;6735;51.456;12.626;2022-09-09T16:22:05;20.60;65.30
13332;DHT22;6735;51.456;12.626;2022-09-09T16:24:32;20.50;65.90
13332;DHT22;6735;51.456;12.626;2022-09-09T16:26:58;20.40;65.90
13332;DHT22;6735;51.456;12.626;2022-09-09T16:29:24;20.30;65.70
13332;DHT22;6735;51.456;12.626;2022-09-09T16:31:53;20.20;66.30
13332;DHT22;6735;51.456;12.626;2022-09-09T16:34:20;20.20;66.80
13332;DHT22;6735;51.456;12.626;2022-09-09T16:36:46;20.10;67.10
13332;DHT22;6735;51.456;12.626;2022-09-09T16:39:14;19.90;67.50
13332;DHT22;6735;51.456;12.626;2022-09-09T16:41:41;19.90;67.60
13332;DHT22;6735;51.456;12.626;2022-09-09T16:44:09;19.80;68.10
13332;DHT22;6735;51.456;12.626;2022-09-09T16:46:37;19.70;68.30
13332;DHT22;6735;51.456;12.626;2022-09-09T16:49:05;19.60;68.70
13332;DHT22;6735;51.456;12.626;2022-09-09T16:51:33;19.50;69.00
13332;DHT22;6735;51.456;12.626;2022-09-09T16:54:01;19.40;69.30
13332;DHT22;6735;51.456;12.626;2022-09-09T16:56:28;19.40;69.50
13332;DHT22;6735;51.456;12.626;2022-09-09T16:58:59;19.30;69.90
13332;DHT22;6735;51.456;12.626;2022-09-09T17:01:26;19.20;70.00
13332;DHT22;6735;51.456;12.626;2022-09-09T17:04:00;19.10;70.20
13332;DHT22;6735;51.456;12.626;2022-09-09T17:06:27;19.00;70.60
13332;DHT22;6735;51.456;12.626;2022-09-09T17:08:58;18.90;70.80
13332;DHT22;6735;51.456;12.626;2022-09-09T17:11:24;18.90;71.30
13332;DHT22;6735;51.456;12.626;2022-09-09T17:13:51;18.70;71.70
13332;DHT22;6735;51.456;12.626;2022-09-09T17:16:18;18.70;72.10
13332;DHT22;6735;51.456;12.626;2022-09-09T17:18:46;18.70;72.30
13332;DHT22;6735;51.456;12.626;2022-09-09T17:21:13;18.60;72.60
13332;DHT22;6735;51.456;12.626;2022-09-09T17:23:40;18.50;72.90
13332;DHT22;6735;51.456;12.626;2022-09-09T17:26:08;18.50;73.10
13332;DHT22;6735;51.456;12.626;2022-09-09T17:28:35;18.40;73.40
13332;DHT22;6735;51.456;12.626;2022-09-09T17:31:01;18.30;73.70